createdAt,value
2024-03-25T00:00:51.256Z,8.00
2024-03-25T00:03:43.794Z,8.20
2024-03-25T00:06:14.333Z,9.40
2024-03-25T00:08:45.785Z,8.80
2024-03-25T00:11:16.414Z,9.30
2024-03-25T00:13:48.374Z,7.90
2024-03-25T00:16:18.811Z,8.50
2024-03-25T00:18:50.346Z,8.90
2024-03-25T00:21:20.977Z,8.60
2024-03-25T00:23:52.536Z,8.90
2024-03-25T00:26:24.773Z,8.70
2024-03-25T00:28:56.261Z,12.50
2024-03-25T00:31:26.885Z,10.10
2024-03-25T00:33:58.333Z,18.40
2024-03-25T00:36:29.064Z,20.80
2024-03-25T00:39:00.515Z,10.20
2024-03-25T00:41:31.046Z,9.00
2024-03-25T00:44:02.611Z,8.00
2024-03-25T00:46:33.334Z,8.20
2024-03-25T00:49:04.987Z,9.30
2024-03-25T00:51:35.517Z,8.60
2024-03-25T00:54:07.065Z,9.90
2024-03-25T00:56:37.702Z,9.90
2024-03-25T00:59:09.422Z,9.40
2024-03-25T01:01:39.882Z,9.70
2024-03-25T01:04:11.748Z,8.50
2024-03-25T01:06:42.388Z,9.00
2024-03-25T01:09:14.335Z,8.80
2024-03-25T01:11:44.870Z,10.30
2024-03-25T01:14:16.425Z,9.70
2024-03-25T01:16:47.055Z,9.10
2024-03-25T01:19:18.507Z,7.90
2024-03-25T01:21:49.135Z,7.80
2024-03-25T01:24:21.302Z,6.80
2024-03-25T01:26:52.438Z,8.30
2024-03-25T01:29:24.105Z,10.60
2024-03-25T01:31:54.936Z,8.80
2024-03-25T01:34:27.310Z,8.30
2024-03-25T01:36:58.460Z,7.60
2024-03-25T01:39:30.199Z,7.50
2024-03-25T01:42:00.637Z,7.90
2024-03-25T01:44:32.182Z,7.20
2024-03-25T01:47:02.606Z,7.00
2024-03-25T01:49:34.265Z,5.60
2024-03-25T01:52:05.100Z,5.80
2024-03-25T01:54:36.857Z,6.30
2024-03-25T01:57:07.280Z,6.40
2024-03-25T01:59:39.035Z,6.00
2024-03-25T02:02:10.184Z,6.70
2024-03-25T02:04:41.637Z,6.70
2024-03-25T02:07:12.374Z,7.70
2024-03-25T02:09:43.300Z,7.10
2024-03-25T02:12:13.730Z,7.30
2024-03-25T02:14:45.392Z,5.90
2024-03-25T02:17:15.713Z,6.20
2024-03-25T02:19:47.470Z,6.30
2024-03-25T02:22:17.997Z,8.90
2024-03-25T02:24:51.888Z,5.90
2024-03-25T02:27:22.028Z,5.20
2024-03-25T02:29:53.987Z,5.70
2024-03-25T02:32:24.208Z,6.90
2024-03-25T02:34:56.369Z,4.50
2024-03-25T02:37:27.204Z,4.80
2024-03-25T02:40:00.364Z,4.70
2024-03-25T02:42:30.723Z,5.40
2024-03-25T02:45:02.390Z,5.20
2024-03-25T02:47:33.016Z,4.60
2024-03-25T02:50:05.186Z,5.20
2024-03-25T02:52:35.402Z,5.40
2024-03-25T02:55:07.670Z,5.40
2024-03-25T02:57:38.005Z,5.40
2024-03-25T03:00:10.672Z,4.80
2024-03-25T03:02:41.406Z,5.40
2024-03-25T03:05:13.887Z,5.00
2024-03-25T03:07:44.303Z,4.30
2024-03-25T03:10:17.217Z,4.50
2024-03-25T03:12:47.618Z,5.20
2024-03-25T03:15:19.474Z,6.70
2024-03-25T03:17:50.006Z,9.50
2024-03-25T03:20:22.072Z,8.60
2024-03-25T03:22:52.392Z,8.50
2024-03-25T03:25:24.046Z,9.60
2024-03-25T03:27:54.574Z,9.40
2024-03-25T03:30:26.232Z,9.40
2024-03-25T03:32:56.867Z,6.60
2024-03-25T03:35:28.517Z,7.40
2024-03-25T03:37:59.177Z,8.10
2024-03-25T03:40:31.007Z,7.80
2024-03-25T03:43:01.351Z,6.70
2024-03-25T03:45:34.753Z,8.00
2024-03-25T03:48:05.505Z,6.30
2024-03-25T03:50:37.522Z,6.90
2024-03-25T03:53:07.852Z,8.20
2024-03-25T03:55:39.603Z,7.20
2024-03-25T03:58:10.136Z,7.10
2024-03-25T04:00:41.692Z,7.70
2024-03-25T04:03:12.213Z,9.10
2024-03-25T04:05:43.876Z,5.70
2024-03-25T04:08:14.501Z,10.30
2024-03-25T04:10:46.468Z,8.70
2024-03-25T04:13:16.791Z,15.10
2024-03-25T04:15:48.309Z,17.80
2024-03-25T04:18:18.980Z,19.90
2024-03-25T04:20:50.424Z,18.60
2024-03-25T04:23:20.948Z,14.30
2024-03-25T04:25:52.509Z,10.00
2024-03-25T04:28:24.039Z,9.40
2024-03-25T04:30:55.921Z,5.40
2024-03-25T04:33:26.459Z,5.60
2024-03-25T04:35:58.004Z,4.80
2024-03-25T04:38:28.941Z,5.80
2024-03-25T04:41:02.566Z,7.40
2024-03-25T04:43:32.864Z,8.20
2024-03-25T04:46:05.338Z,5.50
2024-03-25T04:48:35.761Z,5.30
2024-03-25T04:51:09.546Z,5.40
2024-03-25T04:53:43.184Z,4.40
2024-03-25T04:56:13.703Z,5.00
2024-03-25T04:58:45.146Z,4.80
2024-03-25T05:01:15.883Z,5.70
2024-03-25T05:03:47.639Z,6.00
2024-03-25T05:06:18.073Z,6.10
2024-03-25T05:08:49.617Z,5.60
2024-03-25T05:11:20.972Z,6.10
2024-03-25T05:13:52.833Z,6.30
2024-03-25T05:16:23.146Z,6.60
2024-03-25T05:18:55.106Z,6.50
2024-03-25T05:21:25.543Z,5.10
2024-03-25T05:23:57.296Z,4.60
2024-03-25T05:26:27.716Z,5.50
2024-03-25T05:28:59.496Z,5.20
2024-03-25T05:31:29.903Z,4.40
2024-03-25T05:34:03.961Z,5.20
2024-03-25T05:36:34.657Z,4.50
2024-03-25T05:39:06.294Z,5.50
2024-03-25T05:41:37.039Z,5.10
2024-03-25T05:44:08.701Z,5.40
2024-03-25T05:46:40.315Z,5.50
2024-03-25T05:49:11.815Z,8.50
2024-03-25T05:51:42.626Z,8.60
2024-03-25T05:54:14.082Z,5.20
2024-03-25T05:56:44.781Z,4.80
2024-03-25T05:59:16.477Z,4.50
2024-03-25T06:01:47.004Z,4.00
2024-03-25T06:04:18.456Z,4.10
2024-03-25T06:06:49.601Z,3.60
2024-03-25T06:09:21.040Z,3.10
2024-03-25T06:11:51.779Z,3.00
2024-03-25T06:14:23.328Z,3.50
2024-03-25T06:16:54.173Z,3.30
2024-03-25T06:19:26.744Z,4.40
2024-03-25T06:21:57.276Z,4.00
2024-03-25T06:24:28.923Z,3.10
2024-03-25T06:26:59.353Z,2.40
2024-03-25T06:29:31.993Z,3.30
2024-03-25T06:32:21.843Z,2.50
2024-03-25T06:34:54.487Z,2.80
2024-03-25T06:37:25.012Z,2.60
2024-03-25T06:39:56.673Z,2.70
2024-03-25T06:42:27.405Z,2.30
2024-03-25T06:45:00.113Z,2.70
2024-03-25T06:47:30.533Z,2.20
2024-03-25T06:50:02.634Z,2.20
2024-03-25T06:52:33.116Z,2.90
2024-03-25T06:55:05.327Z,2.40
2024-03-25T06:57:35.692Z,4.20
2024-03-25T07:00:14.215Z,2.40
2024-03-25T07:02:46.280Z,2.80
2024-03-25T07:05:16.706Z,2.30
2024-03-25T07:07:48.556Z,2.70
2024-03-25T07:10:21.364Z,3.40
2024-03-25T07:12:53.000Z,3.00
2024-03-25T07:15:23.335Z,2.30
2024-03-25T07:17:54.990Z,2.70
2024-03-25T07:20:25.877Z,2.50
2024-03-25T07:22:58.202Z,2.30
2024-03-25T07:25:28.715Z,2.10
2024-03-25T07:28:00.478Z,2.70
2024-03-25T07:30:30.860Z,2.00
2024-03-25T07:33:02.759Z,1.80
2024-03-25T07:35:33.398Z,1.80
2024-03-25T07:38:05.157Z,1.90
2024-03-25T07:40:35.677Z,1.80
2024-03-25T07:43:07.842Z,2.40
2024-03-25T07:45:38.791Z,2.00
2024-03-25T07:48:10.543Z,2.00
2024-03-25T07:50:41.511Z,2.10
2024-03-25T07:53:13.890Z,2.50
2024-03-25T07:55:44.412Z,2.50
2024-03-25T07:58:16.037Z,2.10
2024-03-25T08:00:46.668Z,1.90
2024-03-25T08:03:18.548Z,2.10
2024-03-25T08:05:48.946Z,2.00
2024-03-25T08:08:20.812Z,1.40
2024-03-25T08:10:51.546Z,1.70
2024-03-25T08:13:23.482Z,1.40
2024-03-25T08:15:53.930Z,2.00
2024-03-25T08:18:25.836Z,1.80
2024-03-25T08:20:57.095Z,2.00
2024-03-25T08:23:29.345Z,2.40
2024-03-25T08:25:59.748Z,1.80
2024-03-25T08:28:31.403Z,2.30
2024-03-25T08:31:01.965Z,2.50
2024-03-25T08:33:33.478Z,2.90
2024-03-25T08:36:04.915Z,2.60
2024-03-25T08:38:36.567Z,3.40
2024-03-25T08:41:06.995Z,2.40
2024-03-25T08:43:38.656Z,2.30
2024-03-25T08:46:08.978Z,1.90
2024-03-25T08:48:40.641Z,3.00
2024-03-25T08:51:11.265Z,2.70
2024-03-25T08:53:43.223Z,2.50
2024-03-25T08:56:13.749Z,2.00
2024-03-25T08:58:45.388Z,2.50
2024-03-25T09:01:17.480Z,2.70
2024-03-25T09:03:55.123Z,2.50
2024-03-25T09:06:29.075Z,1.80
2024-03-25T09:09:18.043Z,2.40
2024-03-25T09:11:49.999Z,3.10
2024-03-25T09:14:20.532Z,2.50
2024-03-25T09:16:52.188Z,2.10
2024-03-25T09:19:23.467Z,2.40
2024-03-25T09:21:56.120Z,2.20
2024-03-25T09:24:26.838Z,2.40
2024-03-25T09:26:58.540Z,2.10
2024-03-25T09:29:28.828Z,1.70
2024-03-25T09:32:00.583Z,1.70
2024-03-25T09:34:31.235Z,1.40
2024-03-25T09:37:02.764Z,1.40
2024-03-25T09:39:33.297Z,1.60
2024-03-25T09:42:04.741Z,1.40
2024-03-25T09:44:35.293Z,1.30
2024-03-25T09:47:06.923Z,1.30
2024-03-25T09:49:37.352Z,1.10
2024-03-25T09:52:09.657Z,1.40
2024-03-25T09:54:40.146Z,1.30
2024-03-25T09:57:11.736Z,1.60
2024-03-25T09:59:42.640Z,1.90
2024-03-25T10:02:14.136Z,1.80
2024-03-25T10:04:47.223Z,1.90
2024-03-25T10:07:24.069Z,1.60
2024-03-25T10:09:57.522Z,2.10
2024-03-25T10:12:28.292Z,1.80
2024-03-25T10:15:00.252Z,2.00
2024-03-25T10:17:35.461Z,2.10
2024-03-25T10:20:10.971Z,2.00
2024-03-25T10:22:44.007Z,2.60
2024-03-25T10:25:30.319Z,2.30
2024-03-25T10:28:02.803Z,2.90
2024-03-25T10:30:33.178Z,3.90
2024-03-25T10:33:07.656Z,2.10
2024-03-25T10:35:41.121Z,2.20
2024-03-25T10:38:12.260Z,2.30
2024-03-25T10:40:45.236Z,2.40
2024-03-25T10:43:15.848Z,2.00
2024-03-25T10:45:49.022Z,2.00
2024-03-25T10:48:35.707Z,2.80
2024-03-25T10:51:08.199Z,1.90
2024-03-25T10:53:38.704Z,2.00
2024-03-25T10:56:10.775Z,2.00
2024-03-25T10:58:41.289Z,2.50
2024-03-25T11:01:13.057Z,2.70
2024-03-25T11:03:43.472Z,2.40
2024-03-25T11:06:16.463Z,2.10
2024-03-25T11:08:56.649Z,2.40
2024-03-25T11:11:34.930Z,2.40
2024-03-25T11:14:17.010Z,2.50
2024-03-25T11:16:55.214Z,2.80
2024-03-25T11:19:27.712Z,2.60
2024-03-25T11:22:16.465Z,2.80
2024-03-25T11:24:48.631Z,2.80
2024-03-25T11:27:23.471Z,3.40
2024-03-25T11:29:55.226Z,2.60
2024-03-25T11:32:25.719Z,2.20
2024-03-25T11:34:57.510Z,2.50
2024-03-25T11:37:28.347Z,2.70
2024-03-25T11:40:10.081Z,2.70
2024-03-25T11:42:42.820Z,2.50
2024-03-25T11:45:22.463Z,2.60
2024-03-25T11:47:54.939Z,2.70
2024-03-25T11:50:26.178Z,2.70
2024-03-25T11:52:57.728Z,2.70
2024-03-25T11:55:28.577Z,2.60
2024-03-25T11:58:00.320Z,2.50
2024-03-25T12:00:30.963Z,2.50
2024-03-25T12:03:04.659Z,2.70
2024-03-25T12:05:34.888Z,2.20
2024-03-25T12:08:09.806Z,2.20
2024-03-25T12:11:01.230Z,2.60
2024-03-25T12:13:33.190Z,2.70
2024-03-25T12:16:04.986Z,2.60
2024-03-25T12:18:42.574Z,2.00
2024-03-25T12:21:14.297Z,3.00
2024-03-25T12:23:44.630Z,2.50
2024-03-25T12:26:16.898Z,2.80
2024-03-25T12:28:47.215Z,2.40
2024-03-25T12:31:19.378Z,2.60
2024-03-25T12:33:49.617Z,2.60
2024-03-25T12:36:22.388Z,4.10
2024-03-25T12:38:58.760Z,2.90
2024-03-25T12:41:30.406Z,4.90
2024-03-25T12:44:01.150Z,4.90
2024-03-25T12:46:33.786Z,5.20
2024-03-25T12:49:04.351Z,7.30
2024-03-25T12:51:36.416Z,7.40
2024-03-25T12:54:07.147Z,8.10
2024-03-25T12:56:38.800Z,4.20
2024-03-25T12:59:09.230Z,3.40
2024-03-25T13:01:41.968Z,2.50
2024-03-25T13:04:12.439Z,2.60
2024-03-25T13:06:44.505Z,2.20
2024-03-25T13:09:14.924Z,2.40
2024-03-25T13:11:46.782Z,2.20
2024-03-25T13:14:17.656Z,2.30
2024-03-25T13:16:49.887Z,2.50
2024-03-25T13:19:20.312Z,9.10
2024-03-25T13:21:52.086Z,3.50
2024-03-25T13:24:22.507Z,3.20
2024-03-25T13:26:54.051Z,3.30
2024-03-25T13:29:24.591Z,3.50
2024-03-25T13:32:02.763Z,3.50
2024-03-25T13:34:38.021Z,3.40
2024-03-25T13:37:08.352Z,4.20
2024-03-25T13:39:40.012Z,3.30
2024-03-25T13:42:10.334Z,3.60
2024-03-25T13:44:42.085Z,3.10
2024-03-25T13:47:12.623Z,3.00
2024-03-25T13:49:44.454Z,3.40
2024-03-25T13:52:14.795Z,3.20
2024-03-25T13:54:46.583Z,3.30
2024-03-25T13:57:16.883Z,3.90
2024-03-25T13:59:48.583Z,2.90
2024-03-25T14:02:19.385Z,3.30
2024-03-25T14:04:51.029Z,3.90
2024-03-25T14:07:21.456Z,3.50
2024-03-25T14:09:53.216Z,3.90
2024-03-25T14:12:25.027Z,3.60
2024-03-25T14:14:57.034Z,3.10
2024-03-25T14:17:27.494Z,3.50
2024-03-25T14:19:59.423Z,3.20
2024-03-25T14:22:29.863Z,5.30
2024-03-25T14:25:01.711Z,4.00
2024-03-25T14:27:32.643Z,3.60
2024-03-25T14:30:05.123Z,3.70
2024-03-25T14:32:35.852Z,3.90
2024-03-25T14:35:08.086Z,3.70
2024-03-25T14:37:38.652Z,3.60
2024-03-25T14:40:10.890Z,3.90
2024-03-25T14:42:41.651Z,3.20
2024-03-25T14:45:13.314Z,3.90
2024-03-25T14:47:43.738Z,3.40
2024-03-25T14:50:15.590Z,3.20
2024-03-25T14:52:47.868Z,3.20
2024-03-25T14:55:19.542Z,3.10
2024-03-25T14:57:49.955Z,4.00
2024-03-25T15:00:22.067Z,3.30
2024-03-25T15:02:52.760Z,3.30
2024-03-25T15:05:24.324Z,3.50
2024-03-25T15:07:54.778Z,3.50
2024-03-25T15:10:27.820Z,3.50
2024-03-25T15:12:58.139Z,4.50
2024-03-25T15:15:32.261Z,4.10
2024-03-25T15:18:02.692Z,5.00
2024-03-25T15:20:34.488Z,34.70
2024-03-25T15:23:05.382Z,36.50
2024-03-25T15:25:37.027Z,116.10
2024-03-25T15:28:07.579Z,131.60
2024-03-25T15:30:39.406Z,27.80
2024-03-25T15:33:09.844Z,15.30
2024-03-25T15:35:41.697Z,11.10
2024-03-25T15:38:12.658Z,8.50
2024-03-25T15:40:47.392Z,7.80
2024-03-25T15:43:20.179Z,6.30
2024-03-25T15:45:57.484Z,6.50
2024-03-25T15:48:29.505Z,10.10
2024-03-25T15:50:59.918Z,7.00
2024-03-25T15:53:31.581Z,6.40
2024-03-25T15:56:02.516Z,6.20
2024-03-25T15:58:34.574Z,6.70
2024-03-25T16:01:05.113Z,6.80
2024-03-25T16:03:36.668Z,7.20
2024-03-25T16:06:07.524Z,7.30
2024-03-25T16:08:38.945Z,11.80
2024-03-25T16:11:17.030Z,6.70
2024-03-25T16:13:50.374Z,9.90
2024-03-25T16:16:20.909Z,9.40
2024-03-25T16:18:52.456Z,9.50
2024-03-25T16:21:25.009Z,7.20
2024-03-25T16:23:56.916Z,7.20
2024-03-25T16:26:27.498Z,6.70
2024-03-25T16:28:59.082Z,7.50
2024-03-25T16:31:29.490Z,6.50
2024-03-25T16:34:01.619Z,7.60
2024-03-25T16:36:32.066Z,7.30
2024-03-25T16:39:04.967Z,7.80
2024-03-25T16:41:35.412Z,7.20
2024-03-25T16:44:07.237Z,10.10
2024-03-25T16:46:38.840Z,9.20
2024-03-25T16:49:10.517Z,6.40
2024-03-25T16:51:40.978Z,6.70
2024-03-25T16:54:12.772Z,5.40
2024-03-25T16:56:43.531Z,6.20
2024-03-25T16:59:15.273Z,6.40
2024-03-25T17:01:45.887Z,7.20
2024-03-25T17:04:17.974Z,7.00
2024-03-25T17:06:48.556Z,6.70
2024-03-25T17:09:20.618Z,6.70
2024-03-25T17:11:52.791Z,6.70
2024-03-25T17:14:24.660Z,7.40
2024-03-25T17:16:55.179Z,6.80
2024-03-25T17:19:27.149Z,6.40
2024-03-25T17:21:57.360Z,8.30
2024-03-25T17:24:28.915Z,7.20
2024-03-25T17:26:59.337Z,6.70
2024-03-25T17:29:31.232Z,8.60
2024-03-25T17:32:01.922Z,10.10
2024-03-25T17:34:33.649Z,9.70
2024-03-25T17:37:04.012Z,12.70
2024-03-25T17:39:36.482Z,7.80
2024-03-25T17:42:06.703Z,7.40
2024-03-25T17:44:40.433Z,7.30
2024-03-25T17:47:10.835Z,8.60
2024-03-25T17:49:42.492Z,10.10
2024-03-25T17:52:13.473Z,9.90
2024-03-25T17:54:45.187Z,12.50
2024-03-25T17:57:17.761Z,11.60
2024-03-25T17:59:50.987Z,10.30
2024-03-25T18:02:21.477Z,11.90
2024-03-25T18:04:53.131Z,11.70
2024-03-25T18:07:23.659Z,12.80
2024-03-25T18:09:55.419Z,9.30
2024-03-25T18:12:26.658Z,9.30
2024-03-25T18:14:58.319Z,10.90
2024-03-25T18:17:28.867Z,9.60
2024-03-25T18:20:00.517Z,10.20
2024-03-25T18:22:31.138Z,9.20
2024-03-25T18:25:02.800Z,9.30
2024-03-25T18:27:33.218Z,10.20
2024-03-25T18:30:05.377Z,12.20
2024-03-25T18:32:35.890Z,11.20
2024-03-25T18:35:08.179Z,25.90
2024-03-25T18:37:38.706Z,25.00
2024-03-25T18:40:14.576Z,20.70
2024-03-25T18:42:46.217Z,16.40
2024-03-25T18:45:16.675Z,13.20
2024-03-25T18:47:48.516Z,13.30
2024-03-25T18:50:18.838Z,12.30
2024-03-25T18:52:50.991Z,13.20
2024-03-25T18:55:21.221Z,15.00
2024-03-25T18:57:52.867Z,13.30
2024-03-25T19:00:24.304Z,15.20
2024-03-25T19:02:55.874Z,13.30
2024-03-25T19:05:26.312Z,21.20
2024-03-25T19:07:58.370Z,32.10
2024-03-25T19:10:28.501Z,68.20
2024-03-25T19:13:01.225Z,69.60
2024-03-25T19:15:31.490Z,56.00
2024-03-25T19:18:04.033Z,33.20
2024-03-25T19:20:34.472Z,23.70
2024-03-25T19:23:06.437Z,22.20
2024-03-25T19:25:36.979Z,20.70
2024-03-25T19:28:08.746Z,20.50
2024-03-25T19:30:39.067Z,18.00
2024-03-25T19:33:10.825Z,18.80
2024-03-25T19:35:41.143Z,21.20
2024-03-25T19:38:12.802Z,19.80
2024-03-25T19:40:43.123Z,16.70
2024-03-25T19:43:14.876Z,17.10
2024-03-25T19:45:47.151Z,17.40
2024-03-25T19:48:20.221Z,17.00
2024-03-25T19:50:50.771Z,17.40
2024-03-25T19:53:24.326Z,26.80
2024-03-25T19:56:01.372Z,33.00
2024-03-25T19:58:32.899Z,26.30
2024-03-25T20:01:14.216Z,20.50
2024-03-25T20:03:47.272Z,20.30
2024-03-25T20:06:17.996Z,21.60
2024-03-25T20:08:49.757Z,21.40
2024-03-25T20:11:20.185Z,24.30
2024-03-25T20:13:52.714Z,23.80
2024-03-25T20:16:23.501Z,23.90
2024-03-25T20:18:54.942Z,22.90
2024-03-25T20:21:25.484Z,23.30
2024-03-25T20:23:57.027Z,27.40
2024-03-25T20:26:27.659Z,28.80
2024-03-25T20:28:59.107Z,25.90
2024-03-25T20:31:29.742Z,27.90
2024-03-25T20:34:01.505Z,28.30
2024-03-25T20:36:32.023Z,26.30
2024-03-25T20:39:03.986Z,23.50
2024-03-25T20:41:34.471Z,22.20
2024-03-25T20:44:06.787Z,20.30
2024-03-25T20:46:37.939Z,25.30
2024-03-25T20:49:09.689Z,27.30
2024-03-25T20:51:40.336Z,20.50
2024-03-25T20:54:11.866Z,23.70
2024-03-25T20:56:42.298Z,29.20
2024-03-25T20:59:14.309Z,26.20
2024-03-25T21:01:45.113Z,19.30
2024-03-25T21:04:17.566Z,19.50
2024-03-25T21:06:47.785Z,16.40
2024-03-25T21:09:19.773Z,15.80
2024-03-25T21:11:49.982Z,13.30
2024-03-25T21:14:21.940Z,12.40
2024-03-25T21:16:52.374Z,12.60
2024-03-25T21:19:24.224Z,11.20
2024-03-25T21:21:54.546Z,12.90
2024-03-25T21:24:26.413Z,13.40
2024-03-25T21:26:56.626Z,16.40
2024-03-25T21:29:28.498Z,20.80
2024-03-25T21:31:58.722Z,23.50
2024-03-25T21:34:33.229Z,28.00
2024-03-25T21:37:06.639Z,30.50
2024-03-25T21:39:37.153Z,27.30
2024-03-25T21:42:08.811Z,38.40
2024-03-25T21:44:39.558Z,38.50
2024-03-25T21:47:11.212Z,32.40
2024-03-25T21:49:41.624Z,29.50
2024-03-25T21:52:13.995Z,30.50
2024-03-25T21:54:44.628Z,29.80
2024-03-25T21:57:16.281Z,32.50
2024-03-25T21:59:47.121Z,32.10
2024-03-25T22:02:19.426Z,29.20
2024-03-25T22:04:50.017Z,26.70
2024-03-25T22:07:21.671Z,25.00
2024-03-25T22:09:52.097Z,31.60
2024-03-25T22:12:23.857Z,27.80
2024-03-25T22:14:54.388Z,29.60
2024-03-25T22:17:25.944Z,26.80
2024-03-25T22:19:56.365Z,20.60
2024-03-25T22:22:28.119Z,21.60
2024-03-25T22:24:58.445Z,20.30
2024-03-25T22:27:30.195Z,19.30
2024-03-25T22:30:00.831Z,27.10
2024-03-25T22:32:32.666Z,28.50
2024-03-25T22:35:03.122Z,27.50
2024-03-25T22:37:40.234Z,29.10
2024-03-25T22:40:13.702Z,35.50
2024-03-25T22:42:46.481Z,18.10
2024-03-25T22:45:18.030Z,15.80
2024-03-25T22:47:48.587Z,13.20
2024-03-25T22:50:20.737Z,13.20
2024-03-25T22:52:51.253Z,16.60
2024-03-25T22:55:22.911Z,15.80
2024-03-25T22:57:53.151Z,16.10
2024-03-25T23:00:24.995Z,12.80
2024-03-25T23:02:55.419Z,12.40
2024-03-25T23:05:27.582Z,13.20
2024-03-25T23:07:58.035Z,12.00
2024-03-25T23:10:29.769Z,15.30
2024-03-25T23:13:00.197Z,15.00
2024-03-25T23:15:31.853Z,17.70
2024-03-25T23:18:02.698Z,17.30
2024-03-25T23:20:41.575Z,16.60
2024-03-25T23:23:13.992Z,16.90
2024-03-25T23:25:45.537Z,14.50
2024-03-25T23:28:17.096Z,16.10
2024-03-25T23:30:47.615Z,19.30
2024-03-25T23:33:19.285Z,15.80
2024-03-25T23:35:50.214Z,15.60
2024-03-25T23:38:21.687Z,15.60
2024-03-25T23:40:52.291Z,23.40
2024-03-25T23:43:23.748Z,25.40
2024-03-25T23:45:57.552Z,24.40
2024-03-25T23:48:29.941Z,26.10
2024-03-25T23:51:00.563Z,25.10
2024-03-25T23:53:32.518Z,22.60
2024-03-25T23:56:03.050Z,22.30
2024-03-25T23:58:34.689Z,24.90
